sensor_id;sensor_type;location;lat;lon;timestamp;P1;P2;P0
73623;PMS5003;61921;53.226;-1.296;2023-07-08T00:02:17;13;10;
73623;PMS5003;61921;53.226;-1.296;2023-07-08T00:04:42;13;12;
73623;PMS5003;61921;53.226;-1.296;2023-07-08T00:07:10;12;12;
73623;PMS5003;61921;53.226;-1.296;2023-07-08T00:09:33;12;12;
73623;PMS5003;61921;53.226;-1.296;2023-07-08T00:11:58;14;12;
73623;PMS5003;61921;53.226;-1.296;2023-07-08T00:14:23;11;11;
73623;PMS5003;61921;53.226;-1.296;2023-07-08T00:16:48;10;9;
73623;PMS5003;61921;53.226;-1.296;2023-07-08T00:19:13;12;11;
73623;PMS5003;61921;53.226;-1.296;2023-07-08T00:21:38;15;12;
73623;PMS5003;61921;53.226;-1.296;2023-07-08T00:24:03;16;13;
73623;PMS5003;61921;53.226;-1.296;2023-07-08T00:26:29;12;12;
73623;PMS5003;61921;53.226;-1.296;2023-07-08T00:28:54;15;13;
73623;PMS5003;61921;53.226;-1.296;2023-07-08T00:31:18;12;12;
73623;PMS5003;61921;53.226;-1.296;2023-07-08T00:33:44;14;12;
73623;PMS5003;61921;53.226;-1.296;2023-07-08T00:36:11;12;10;
73623;PMS5003;61921;53.226;-1.296;2023-07-08T00:38:34;11;10;
73623;PMS5003;61921;53.226;-1.296;2023-07-08T00:41:06;11;10;
73623;PMS5003;61921;53.226;-1.296;2023-07-08T00:43:29;12;11;
73623;PMS5003;61921;53.226;-1.296;2023-07-08T00:45:51;14;12;
73623;PMS5003;61921;53.226;-1.296;2023-07-08T00:48:18;13;11;
73623;PMS5003;61921;53.226;-1.296;2023-07-08T00:50:41;13;12;
73623;PMS5003;61921;53.226;-1.296;2023-07-08T00:55:32;15;13;
73623;PMS5003;61921;53.226;-1.296;2023-07-08T00:57:57;12;11;
73623;PMS5003;61921;53.226;-1.296;2023-07-08T01:00:22;13;11;
73623;PMS5003;61921;53.226;-1.296;2023-07-08T01:02:48;12;12;
73623;PMS5003;61921;53.226;-1.296;2023-07-08T01:05:13;13;12;
73623;PMS5003;61921;53.226;-1.296;2023-07-08T01:07:38;13;12;
73623;PMS5003;61921;53.226;-1.296;2023-07-08T01:10:04;13;12;
73623;PMS5003;61921;53.226;-1.296;2023-07-08T01:12:29;12;12;
73623;PMS5003;61921;53.226;-1.296;2023-07-08T01:14:53;13;11;
73623;PMS5003;61921;53.226;-1.296;2023-07-08T01:17:18;13;13;
73623;PMS5003;61921;53.226;-1.296;2023-07-08T01:19:44;16;12;
73623;PMS5003;61921;53.226;-1.296;2023-07-08T01:22:09;13;10;
73623;PMS5003;61921;53.226;-1.296;2023-07-08T01:24:35;14;13;
73623;PMS5003;61921;53.226;-1.296;2023-07-08T01:27:00;13;12;
73623;PMS5003;61921;53.226;-1.296;2023-07-08T01:29:25;13;11;
73623;PMS5003;61921;53.226;-1.296;2023-07-08T01:31:50;14;13;
73623;PMS5003;61921;53.226;-1.296;2023-07-08T01:34:15;12;12;
73623;PMS5003;61921;53.226;-1.296;2023-07-08T01:36:40;14;13;
73623;PMS5003;61921;53.226;-1.296;2023-07-08T01:39:05;12;12;
73623;PMS5003;61921;53.226;-1.296;2023-07-08T01:41:30;12;10;
73623;PMS5003;61921;53.226;-1.296;2023-07-08T01:43:56;12;12;
73623;PMS5003;61921;53.226;-1.296;2023-07-08T01:46:23;13;13;
73623;PMS5003;61921;53.226;-1.296;2023-07-08T01:48:48;14;14;
73623;PMS5003;61921;53.226;-1.296;2023-07-08T01:51:12;14;12;
73623;PMS5003;61921;53.226;-1.296;2023-07-08T01:53:38;13;13;
73623;PMS5003;61921;53.226;-1.296;2023-07-08T01:56:03;15;14;
73623;PMS5003;61921;53.226;-1.296;2023-07-08T01:58:27;15;14;
73623;PMS5003;61921;53.226;-1.296;2023-07-08T02:00:53;21;14;
73623;PMS5003;61921;53.226;-1.296;2023-07-08T02:03:19;11;11;
73623;PMS5003;61921;53.226;-1.296;2023-07-08T02:05:44;16;14;
73623;PMS5003;61921;53.226;-1.296;2023-07-08T02:08:09;14;14;
73623;PMS5003;61921;53.226;-1.296;2023-07-08T02:10:36;15;14;
73623;PMS5003;61921;53.226;-1.296;2023-07-08T02:13:01;13;12;
73623;PMS5003;61921;53.226;-1.296;2023-07-08T02:15:25;13;13;
73623;PMS5003;61921;53.226;-1.296;2023-07-08T02:17:51;17;16;
73623;PMS5003;61921;53.226;-1.296;2023-07-08T02:20:16;14;12;
73623;PMS5003;61921;53.226;-1.296;2023-07-08T02:22:42;17;15;
73623;PMS5003;61921;53.226;-1.296;2023-07-08T02:25:08;17;14;
73623;PMS5003;61921;53.226;-1.296;2023-07-08T02:27:33;13;12;
73623;PMS5003;61921;53.226;-1.296;2023-07-08T02:29:59;15;15;
73623;PMS5003;61921;53.226;-1.296;2023-07-08T02:32:24;14;12;
73623;PMS5003;61921;53.226;-1.296;2023-07-08T02:34:49;14;14;
73623;PMS5003;61921;53.226;-1.296;2023-07-08T02:37:15;16;16;
73623;PMS5003;61921;53.226;-1.296;2023-07-08T02:39:40;12;12;
73623;PMS5003;61921;53.226;-1.296;2023-07-08T02:42:06;19;15;
73623;PMS5003;61921;53.226;-1.296;2023-07-08T02:44:31;13;11;
73623;PMS5003;61921;53.226;-1.296;2023-07-08T02:46:57;15;15;
73623;PMS5003;61921;53.226;-1.296;2023-07-08T02:49:22;17;15;
73623;PMS5003;61921;53.226;-1.296;2023-07-08T02:51:47;15;14;
73623;PMS5003;61921;53.226;-1.296;2023-07-08T02:54:13;16;15;
73623;PMS5003;61921;53.226;-1.296;2023-07-08T02:56:38;16;16;
73623;PMS5003;61921;53.226;-1.296;2023-07-08T02:59:04;15;15;
73623;PMS5003;61921;53.226;-1.296;2023-07-08T03:01:29;17;15;
73623;PMS5003;61921;53.226;-1.296;2023-07-08T03:03:54;14;14;
73623;PMS5003;61921;53.226;-1.296;2023-07-08T03:06:20;14;14;
73623;PMS5003;61921;53.226;-1.296;2023-07-08T03:08:45;19;18;
73623;PMS5003;61921;53.226;-1.296;2023-07-08T03:11:11;16;16;
73623;PMS5003;61921;53.226;-1.296;2023-07-08T03:13:36;17;15;
73623;PMS5003;61921;53.226;-1.296;2023-07-08T03:16:02;18;14;
73623;PMS5003;61921;53.226;-1.296;2023-07-08T03:18:27;16;15;
73623;PMS5003;61921;53.226;-1.296;2023-07-08T03:20:53;14;14;
73623;PMS5003;61921;53.226;-1.296;2023-07-08T03:23:19;16;14;
73623;PMS5003;61921;53.226;-1.296;2023-07-08T03:25:44;15;14;
73623;PMS5003;61921;53.226;-1.296;2023-07-08T03:28:10;16;15;
73623;PMS5003;61921;53.226;-1.296;2023-07-08T03:30:36;15;13;
73623;PMS5003;61921;53.226;-1.296;2023-07-08T03:33:02;17;15;
73623;PMS5003;61921;53.226;-1.296;2023-07-08T03:35:26;15;15;
73623;PMS5003;61921;53.226;-1.296;2023-07-08T03:37:51;18;16;
73623;PMS5003;61921;53.226;-1.296;2023-07-08T03:40:17;13;13;
73623;PMS5003;61921;53.226;-1.296;2023-07-08T03:42:42;15;13;
73623;PMS5003;61921;53.226;-1.296;2023-07-08T03:45:07;16;16;
73623;PMS5003;61921;53.226;-1.296;2023-07-08T03:47:33;18;15;
73623;PMS5003;61921;53.226;-1.296;2023-07-08T03:49:59;17;14;
73623;PMS5003;61921;53.226;-1.296;2023-07-08T03:52:29;19;15;
73623;PMS5003;61921;53.226;-1.296;2023-07-08T03:54:50;21;17;
73623;PMS5003;61921;53.226;-1.296;2023-07-08T03:57:15;14;14;
73623;PMS5003;61921;53.226;-1.296;2023-07-08T03:59:40;15;14;
73623;PMS5003;61921;53.226;-1.296;2023-07-08T04:02:07;17;17;
73623;PMS5003;61921;53.226;-1.296;2023-07-08T04:04:31;18;15;
73623;PMS5003;61921;53.226;-1.296;2023-07-08T04:06:56;22;19;
73623;PMS5003;61921;53.226;-1.296;2023-07-08T04:09:21;21;17;
73623;PMS5003;61921;53.226;-1.296;2023-07-08T04:11:46;19;18;
73623;PMS5003;61921;53.226;-1.296;2023-07-08T04:14:12;23;21;
73623;PMS5003;61921;53.226;-1.296;2023-07-08T04:16:42;13;13;
73623;PMS5003;61921;53.226;-1.296;2023-07-08T04:19:03;15;15;
73623;PMS5003;61921;53.226;-1.296;2023-07-08T04:21:28;22;18;
73623;PMS5003;61921;53.226;-1.296;2023-07-08T04:23:53;16;16;
73623;PMS5003;61921;53.226;-1.296;2023-07-08T04:26:19;20;18;
73623;PMS5003;61921;53.226;-1.296;2023-07-08T04:28:44;17;16;
73623;PMS5003;61921;53.226;-1.296;2023-07-08T04:31:09;22;17;
73623;PMS5003;61921;53.226;-1.296;2023-07-08T04:33:35;18;17;
73623;PMS5003;61921;53.226;-1.296;2023-07-08T04:36:01;19;19;
73623;PMS5003;61921;53.226;-1.296;2023-07-08T04:38:26;17;17;
73623;PMS5003;61921;53.226;-1.296;2023-07-08T04:40:51;17;15;
73623;PMS5003;61921;53.226;-1.296;2023-07-08T04:43:17;20;18;
73623;PMS5003;61921;53.226;-1.296;2023-07-08T04:45:42;22;20;
73623;PMS5003;61921;53.226;-1.296;2023-07-08T04:48:07;15;14;
73623;PMS5003;61921;53.226;-1.296;2023-07-08T04:50:33;19;19;
73623;PMS5003;61921;53.226;-1.296;2023-07-08T04:52:58;21;19;
73623;PMS5003;61921;53.226;-1.296;2023-07-08T04:55:23;19;19;
73623;PMS5003;61921;53.226;-1.296;2023-07-08T04:57:49;22;21;
73623;PMS5003;61921;53.226;-1.296;2023-07-08T05:00:15;17;15;
73623;PMS5003;61921;53.226;-1.296;2023-07-08T05:02:40;22;20;
73623;PMS5003;61921;53.226;-1.296;2023-07-08T05:05:06;19;17;
73623;PMS5003;61921;53.226;-1.296;2023-07-08T05:07:31;19;16;
73623;PMS5003;61921;53.226;-1.296;2023-07-08T05:09:57;19;19;
73623;PMS5003;61921;53.226;-1.296;2023-07-08T05:12:21;14;14;
73623;PMS5003;61921;53.226;-1.296;2023-07-08T05:14:47;18;18;
73623;PMS5003;61921;53.226;-1.296;2023-07-08T05:17:13;19;16;
73623;PMS5003;61921;53.226;-1.296;2023-07-08T05:19:38;17;15;
73623;PMS5003;61921;53.226;-1.296;2023-07-08T05:22:04;20;19;
73623;PMS5003;61921;53.226;-1.296;2023-07-08T05:24:30;17;16;
73623;PMS5003;61921;53.226;-1.296;2023-07-08T05:26:55;17;17;
73623;PMS5003;61921;53.226;-1.296;2023-07-08T05:29:20;17;16;
73623;PMS5003;61921;53.226;-1.296;2023-07-08T05:31:45;19;18;
73623;PMS5003;61921;53.226;-1.296;2023-07-08T05:34:11;20;18;
73623;PMS5003;61921;53.226;-1.296;2023-07-08T05:36:36;20;16;
73623;PMS5003;61921;53.226;-1.296;2023-07-08T05:39:02;18;16;
73623;PMS5003;61921;53.226;-1.296;2023-07-08T05:41:27;20;15;
73623;PMS5003;61921;53.226;-1.296;2023-07-08T05:43:52;21;18;
73623;PMS5003;61921;53.226;-1.296;2023-07-08T05:46:17;18;17;
73623;PMS5003;61921;53.226;-1.296;2023-07-08T05:48:43;16;16;
73623;PMS5003;61921;53.226;-1.296;2023-07-08T05:51:09;15;14;
73623;PMS5003;61921;53.226;-1.296;2023-07-08T05:53:35;19;16;
73623;PMS5003;61921;53.226;-1.296;2023-07-08T05:56:01;15;15;
73623;PMS5003;61921;53.226;-1.296;2023-07-08T05:58:25;17;16;
73623;PMS5003;61921;53.226;-1.296;2023-07-08T06:00:54;17;17;
73623;PMS5003;61921;53.226;-1.296;2023-07-08T06:03:16;18;16;
73623;PMS5003;61921;53.226;-1.296;2023-07-08T06:05:42;16;14;
73623;PMS5003;61921;53.226;-1.296;2023-07-08T06:08:07;16;16;
73623;PMS5003;61921;53.226;-1.296;2023-07-08T06:10:32;16;15;
73623;PMS5003;61921;53.226;-1.296;2023-07-08T06:12:58;19;15;
73623;PMS5003;61921;53.226;-1.296;2023-07-08T06:15:23;17;17;
73623;PMS5003;61921;53.226;-1.296;2023-07-08T06:17:48;17;17;
73623;PMS5003;61921;53.226;-1.296;2023-07-08T06:20:13;18;17;
73623;PMS5003;61921;53.226;-1.296;2023-07-08T06:22:39;15;15;
73623;PMS5003;61921;53.226;-1.296;2023-07-08T06:25:05;14;14;
73623;PMS5003;61921;53.226;-1.296;2023-07-08T06:27:30;17;16;
73623;PMS5003;61921;53.226;-1.296;2023-07-08T06:29:56;17;16;
73623;PMS5003;61921;53.226;-1.296;2023-07-08T06:32:21;15;15;
73623;PMS5003;61921;53.226;-1.296;2023-07-08T06:34:47;16;16;
73623;PMS5003;61921;53.226;-1.296;2023-07-08T06:37:12;17;15;
73623;PMS5003;61921;53.226;-1.296;2023-07-08T06:39:38;20;16;
73623;PMS5003;61921;53.226;-1.296;2023-07-08T06:42:03;18;15;
73623;PMS5003;61921;53.226;-1.296;2023-07-08T06:44:28;14;14;
73623;PMS5003;61921;53.226;-1.296;2023-07-08T06:46:54;18;17;
73623;PMS5003;61921;53.226;-1.296;2023-07-08T06:49:19;17;15;
73623;PMS5003;61921;53.226;-1.296;2023-07-08T06:51:45;16;16;
73623;PMS5003;61921;53.226;-1.296;2023-07-08T06:54:10;16;15;
73623;PMS5003;61921;53.226;-1.296;2023-07-08T06:56:35;16;16;
73623;PMS5003;61921;53.226;-1.296;2023-07-08T06:59:00;15;15;
73623;PMS5003;61921;53.226;-1.296;2023-07-08T07:01:26;17;16;
73623;PMS5003;61921;53.226;-1.296;2023-07-08T07:03:51;15;13;
73623;PMS5003;61921;53.226;-1.296;2023-07-08T07:06:16;17;15;
73623;PMS5003;61921;53.226;-1.296;2023-07-08T07:08:41;15;15;
73623;PMS5003;61921;53.226;-1.296;2023-07-08T07:11:06;20;15;
73623;PMS5003;61921;53.226;-1.296;2023-07-08T07:13:31;15;13;
73623;PMS5003;61921;53.226;-1.296;2023-07-08T07:15:56;13;13;
73623;PMS5003;61921;53.226;-1.296;2023-07-08T07:18:22;13;12;
73623;PMS5003;61921;53.226;-1.296;2023-07-08T07:20:48;15;13;
73623;PMS5003;61921;53.226;-1.296;2023-07-08T07:23:13;13;13;
73623;PMS5003;61921;53.226;-1.296;2023-07-08T07:25:38;13;12;
73623;PMS5003;61921;53.226;-1.296;2023-07-08T07:28:03;14;14;
73623;PMS5003;61921;53.226;-1.296;2023-07-08T07:30:28;14;14;
73623;PMS5003;61921;53.226;-1.296;2023-07-08T07:32:54;17;16;
73623;PMS5003;61921;53.226;-1.296;2023-07-08T07:35:21;14;14;
73623;PMS5003;61921;53.226;-1.296;2023-07-08T07:37:46;14;14;
73623;PMS5003;61921;53.226;-1.296;2023-07-08T07:40:12;12;12;
73623;PMS5003;61921;53.226;-1.296;2023-07-08T07:42:37;13;13;
73623;PMS5003;61921;53.226;-1.296;2023-07-08T07:45:03;15;14;
73623;PMS5003;61921;53.226;-1.296;2023-07-08T07:47:29;12;12;
73623;PMS5003;61921;53.226;-1.296;2023-07-08T07:49:54;16;14;
73623;PMS5003;61921;53.226;-1.296;2023-07-08T07:52:20;18;15;
73623;PMS5003;61921;53.226;-1.296;2023-07-08T07:54:46;17;17;
73623;PMS5003;61921;53.226;-1.296;2023-07-08T07:57:12;10;10;
73623;PMS5003;61921;53.226;-1.296;2023-07-08T07:59:38;13;13;
73623;PMS5003;61921;53.226;-1.296;2023-07-08T08:02:03;17;16;
73623;PMS5003;61921;53.226;-1.296;2023-07-08T08:04:29;11;11;
73623;PMS5003;61921;53.226;-1.296;2023-07-08T08:06:55;14;14;
73623;PMS5003;61921;53.226;-1.296;2023-07-08T08:09:20;13;12;
73623;PMS5003;61921;53.226;-1.296;2023-07-08T08:11:45;17;13;
73623;PMS5003;61921;53.226;-1.296;2023-07-08T08:14:11;11;11;
73623;PMS5003;61921;53.226;-1.296;2023-07-08T08:16:37;13;13;
73623;PMS5003;61921;53.226;-1.296;2023-07-08T08:19:03;15;15;
73623;PMS5003;61921;53.226;-1.296;2023-07-08T08:21:29;15;15;
73623;PMS5003;61921;53.226;-1.296;2023-07-08T08:23:54;12;12;
73623;PMS5003;61921;53.226;-1.296;2023-07-08T08:26:19;17;14;
73623;PMS5003;61921;53.226;-1.296;2023-07-08T08:28:44;16;13;
73623;PMS5003;61921;53.226;-1.296;2023-07-08T08:31:10;15;15;
73623;PMS5003;61921;53.226;-1.296;2023-07-08T08:33:35;17;15;
73623;PMS5003;61921;53.226;-1.296;2023-07-08T08:36:02;13;13;
73623;PMS5003;61921;53.226;-1.296;2023-07-08T08:38:27;17;16;
73623;PMS5003;61921;53.226;-1.296;2023-07-08T08:40:53;14;12;
73623;PMS5003;61921;53.226;-1.296;2023-07-08T08:43:19;18;15;
73623;PMS5003;61921;53.226;-1.296;2023-07-08T08:45:46;14;13;
73623;PMS5003;61921;53.226;-1.296;2023-07-08T08:48:11;14;13;
73623;PMS5003;61921;53.226;-1.296;2023-07-08T08:50:38;18;17;
73623;PMS5003;61921;53.226;-1.296;2023-07-08T08:53:02;14;14;
73623;PMS5003;61921;53.226;-1.296;2023-07-08T08:55:25;13;12;
73623;PMS5003;61921;53.226;-1.296;2023-07-08T08:57:53;17;16;
73623;PMS5003;61921;53.226;-1.296;2023-07-08T09:00:18;14;14;
73623;PMS5003;61921;53.226;-1.296;2023-07-08T09:02:42;16;13;
73623;PMS5003;61921;53.226;-1.296;2023-07-08T09:05:07;17;16;
73623;PMS5003;61921;53.226;-1.296;2023-07-08T09:07:31;17;16;
73623;PMS5003;61921;53.226;-1.296;2023-07-08T09:09:59;20;20;
73623;PMS5003;61921;53.226;-1.296;2023-07-08T09:12:22;14;13;
73623;PMS5003;61921;53.226;-1.296;2023-07-08T09:14:46;15;15;
73623;PMS5003;61921;53.226;-1.296;2023-07-08T09:17:14;15;15;
73623;PMS5003;61921;53.226;-1.296;2023-07-08T09:19:38;19;17;
73623;PMS5003;61921;53.226;-1.296;2023-07-08T09:22:03;17;16;
73623;PMS5003;61921;53.226;-1.296;2023-07-08T09:24:31;17;14;
73623;PMS5003;61921;53.226;-1.296;2023-07-08T09:26:54;15;12;
73623;PMS5003;61921;53.226;-1.296;2023-07-08T09:29:20;14;14;
73623;PMS5003;61921;53.226;-1.296;2023-07-08T09:31:44;17;16;
73623;PMS5003;61921;53.226;-1.296;2023-07-08T09:34:09;22;16;
73623;PMS5003;61921;53.226;-1.296;2023-07-08T09:36:38;17;17;
73623;PMS5003;61921;53.226;-1.296;2023-07-08T09:39:00;21;18;
73623;PMS5003;61921;53.226;-1.296;2023-07-08T09:41:30;15;14;
73623;PMS5003;61921;53.226;-1.296;2023-07-08T09:43:51;16;15;
73623;PMS5003;61921;53.226;-1.296;2023-07-08T09:46:16;15;15;
73623;PMS5003;61921;53.226;-1.296;2023-07-08T09:48:41;18;17;
73623;PMS5003;61921;53.226;-1.296;2023-07-08T09:51:07;19;18;
73623;PMS5003;61921;53.226;-1.296;2023-07-08T09:53:33;21;17;
73623;PMS5003;61921;53.226;-1.296;2023-07-08T09:55:58;21;17;
73623;PMS5003;61921;53.226;-1.296;2023-07-08T09:58:24;14;14;
73623;PMS5003;61921;53.226;-1.296;2023-07-08T10:00:50;15;15;
73623;PMS5003;61921;53.226;-1.296;2023-07-08T10:03:16;15;13;
73623;PMS5003;61921;53.226;-1.296;2023-07-08T10:05:39;16;15;
73623;PMS5003;61921;53.226;-1.296;2023-07-08T10:08:10;22;16;
73623;PMS5003;61921;53.226;-1.296;2023-07-08T10:10:30;18;18;
73623;PMS5003;61921;53.226;-1.296;2023-07-08T10:12:55;18;18;
73623;PMS5003;61921;53.226;-1.296;2023-07-08T10:15:20;17;17;
73623;PMS5003;61921;53.226;-1.296;2023-07-08T10:17:45;15;15;
73623;PMS5003;61921;53.226;-1.296;2023-07-08T10:20:11;21;19;
73623;PMS5003;61921;53.226;-1.296;2023-07-08T10:22:39;18;18;
73623;PMS5003;61921;53.226;-1.296;2023-07-08T10:25:04;20;20;
73623;PMS5003;61921;53.226;-1.296;2023-07-08T10:27:28;20;18;
73623;PMS5003;61921;53.226;-1.296;2023-07-08T10:29:53;20;19;
73623;PMS5003;61921;53.226;-1.296;2023-07-08T10:32:19;18;18;
73623;PMS5003;61921;53.226;-1.296;2023-07-08T10:34:44;20;18;
73623;PMS5003;61921;53.226;-1.296;2023-07-08T10:37:09;22;20;
73623;PMS5003;61921;53.226;-1.296;2023-07-08T10:42:00;22;22;
73623;PMS5003;61921;53.226;-1.296;2023-07-08T10:44:26;21;21;
73623;PMS5003;61921;53.226;-1.296;2023-07-08T10:46:51;27;21;
73623;PMS5003;61921;53.226;-1.296;2023-07-08T10:49:22;18;17;
73623;PMS5003;61921;53.226;-1.296;2023-07-08T10:51:41;17;17;
73623;PMS5003;61921;53.226;-1.296;2023-07-08T10:54:11;19;17;
73623;PMS5003;61921;53.226;-1.296;2023-07-08T10:56:33;25;22;
73623;PMS5003;61921;53.226;-1.296;2023-07-08T10:59:05;26;23;
73623;PMS5003;61921;53.226;-1.296;2023-07-08T11:01:25;20;19;
73623;PMS5003;61921;53.226;-1.296;2023-07-08T11:03:54;17;17;
73623;PMS5003;61921;53.226;-1.296;2023-07-08T11:06:14;24;22;
73623;PMS5003;61921;53.226;-1.296;2023-07-08T11:08:40;20;17;
73623;PMS5003;61921;53.226;-1.296;2023-07-08T11:11:06;19;17;
73623;PMS5003;61921;53.226;-1.296;2023-07-08T11:13:31;16;15;
73623;PMS5003;61921;53.226;-1.296;2023-07-08T11:15:56;22;20;
73623;PMS5003;61921;53.226;-1.296;2023-07-08T11:18:22;21;18;
73623;PMS5003;61921;53.226;-1.296;2023-07-08T11:20:49;17;16;
73623;PMS5003;61921;53.226;-1.296;2023-07-08T11:23:12;22;18;
73623;PMS5003;61921;53.226;-1.296;2023-07-08T11:25:36;20;18;
73623;PMS5003;61921;53.226;-1.296;2023-07-08T11:28:03;24;21;
73623;PMS5003;61921;53.226;-1.296;2023-07-08T11:30:28;21;20;
73623;PMS5003;61921;53.226;-1.296;2023-07-08T11:32:54;19;19;
73623;PMS5003;61921;53.226;-1.296;2023-07-08T11:35:19;21;21;
73623;PMS5003;61921;53.226;-1.296;2023-07-08T11:37:44;18;18;
73623;PMS5003;61921;53.226;-1.296;2023-07-08T11:42:35;26;25;
73623;PMS5003;61921;53.226;-1.296;2023-07-08T11:45:00;73;65;
73623;PMS5003;61921;53.226;-1.296;2023-07-08T11:47:29;20;19;
73623;PMS5003;61921;53.226;-1.296;2023-07-08T11:49:52;20;20;
73623;PMS5003;61921;53.226;-1.296;2023-07-08T11:52:17;19;18;
73623;PMS5003;61921;53.226;-1.296;2023-07-08T11:54:43;19;18;
73623;PMS5003;61921;53.226;-1.296;2023-07-08T11:57:07;22;20;
73623;PMS5003;61921;53.226;-1.296;2023-07-08T11:59:32;21;20;
73623;PMS5003;61921;53.226;-1.296;2023-07-08T12:02:01;20;18;
73623;PMS5003;61921;53.226;-1.296;2023-07-08T12:04:26;18;17;
73623;PMS5003;61921;53.226;-1.296;2023-07-08T12:06:48;16;16;
73623;PMS5003;61921;53.226;-1.296;2023-07-08T12:09:14;21;18;
73623;PMS5003;61921;53.226;-1.296;2023-07-08T12:11:39;20;17;
73623;PMS5003;61921;53.226;-1.296;2023-07-08T12:14:04;19;19;
73623;PMS5003;61921;53.226;-1.296;2023-07-08T12:16:30;16;15;
73623;PMS5003;61921;53.226;-1.296;2023-07-08T12:18:55;18;18;
73623;PMS5003;61921;53.226;-1.296;2023-07-08T12:21:21;18;16;
73623;PMS5003;61921;53.226;-1.296;2023-07-08T12:23:46;18;16;
73623;PMS5003;61921;53.226;-1.296;2023-07-08T12:26:12;19;17;
73623;PMS5003;61921;53.226;-1.296;2023-07-08T12:28:38;13;13;
73623;PMS5003;61921;53.226;-1.296;2023-07-08T12:31:04;17;17;
73623;PMS5003;61921;53.226;-1.296;2023-07-08T12:33:29;16;15;
73623;PMS5003;61921;53.226;-1.296;2023-07-08T12:35:55;17;15;
73623;PMS5003;61921;53.226;-1.296;2023-07-08T12:38:21;16;16;
73623;PMS5003;61921;53.226;-1.296;2023-07-08T12:40:46;16;15;
73623;PMS5003;61921;53.226;-1.296;2023-07-08T12:43:12;16;13;
73623;PMS5003;61921;53.226;-1.296;2023-07-08T12:45:37;16;16;
73623;PMS5003;61921;53.226;-1.296;2023-07-08T12:48:04;12;11;
73623;PMS5003;61921;53.226;-1.296;2023-07-08T12:50:29;12;9;
73623;PMS5003;61921;53.226;-1.296;2023-07-08T12:52:55;8;8;
73623;PMS5003;61921;53.226;-1.296;2023-07-08T12:55:20;9;8;
73623;PMS5003;61921;53.226;-1.296;2023-07-08T12:57:48;6;6;
73623;PMS5003;61921;53.226;-1.296;2023-07-08T13:00:12;8;6;
73623;PMS5003;61921;53.226;-1.296;2023-07-08T13:02:37;8;6;
73623;PMS5003;61921;53.226;-1.296;2023-07-08T13:05:02;7;7;
73623;PMS5003;61921;53.226;-1.296;2023-07-08T13:07:30;6;5;
73623;PMS5003;61921;53.226;-1.296;2023-07-08T13:09:52;5;5;
73623;PMS5003;61921;53.226;-1.296;2023-07-08T13:12:19;8;7;
73623;PMS5003;61921;53.226;-1.296;2023-07-08T13:14:43;6;6;
73623;PMS5003;61921;53.226;-1.296;2023-07-08T13:17:09;5;5;
73623;PMS5003;61921;53.226;-1.296;2023-07-08T13:19:33;6;4;
73623;PMS5003;61921;53.226;-1.296;2023-07-08T13:21:58;6;5;
73623;PMS5003;61921;53.226;-1.296;2023-07-08T13:24:23;5;5;
73623;PMS5003;61921;53.226;-1.296;2023-07-08T13:26:48;8;7;
73623;PMS5003;61921;53.226;-1.296;2023-07-08T13:29:14;6;6;
73623;PMS5003;61921;53.226;-1.296;2023-07-08T13:31:38;7;7;
73623;PMS5003;61921;53.226;-1.296;2023-07-08T13:34:06;7;5;
73623;PMS5003;61921;53.226;-1.296;2023-07-08T13:36:31;6;5;
73623;PMS5003;61921;53.226;-1.296;2023-07-08T13:38:53;5;5;
73623;PMS5003;61921;53.226;-1.296;2023-07-08T13:41:19;7;7;
73623;PMS5003;61921;53.226;-1.296;2023-07-08T13:43:43;9;8;
73623;PMS5003;61921;53.226;-1.296;2023-07-08T13:48:35;7;6;
73623;PMS5003;61921;53.226;-1.296;2023-07-08T13:51:03;7;6;
73623;PMS5003;61921;53.226;-1.296;2023-07-08T13:53:26;6;5;
73623;PMS5003;61921;53.226;-1.296;2023-07-08T13:58:16;9;7;
73623;PMS5003;61921;53.226;-1.296;2023-07-08T14:00:40;7;7;
73623;PMS5003;61921;53.226;-1.296;2023-07-08T14:03:07;8;8;
73623;PMS5003;61921;53.226;-1.296;2023-07-08T14:05:30;12;10;
73623;PMS5003;61921;53.226;-1.296;2023-07-08T14:07:55;16;12;
73623;PMS5003;61921;53.226;-1.296;2023-07-08T14:10:21;12;12;
73623;PMS5003;61921;53.226;-1.296;2023-07-08T14:12:46;13;13;
73623;PMS5003;61921;53.226;-1.296;2023-07-08T14:15:11;16;15;
73623;PMS5003;61921;53.226;-1.296;2023-07-08T14:17:36;19;17;
73623;PMS5003;61921;53.226;-1.296;2023-07-08T14:20:04;18;18;
73623;PMS5003;61921;53.226;-1.296;2023-07-08T14:22:27;23;23;
73623;PMS5003;61921;53.226;-1.296;2023-07-08T14:24:52;22;21;
73623;PMS5003;61921;53.226;-1.296;2023-07-08T14:27:17;24;24;
73623;PMS5003;61921;53.226;-1.296;2023-07-08T14:29:43;24;21;
73623;PMS5003;61921;53.226;-1.296;2023-07-08T14:32:09;19;19;
73623;PMS5003;61921;53.226;-1.296;2023-07-08T14:34:33;20;18;
73623;PMS5003;61921;53.226;-1.296;2023-07-08T14:36:59;18;18;
73623;PMS5003;61921;53.226;-1.296;2023-07-08T14:39:24;25;24;
73623;PMS5003;61921;53.226;-1.296;2023-07-08T14:41:49;17;16;
73623;PMS5003;61921;53.226;-1.296;2023-07-08T14:44:19;18;18;
73623;PMS5003;61921;53.226;-1.296;2023-07-08T14:46:40;20;20;
73623;PMS5003;61921;53.226;-1.296;2023-07-08T14:49:08;18;18;
73623;PMS5003;61921;53.226;-1.296;2023-07-08T14:51:30;23;20;
73623;PMS5003;61921;53.226;-1.296;2023-07-08T14:53:55;21;21;
73623;PMS5003;61921;53.226;-1.296;2023-07-08T14:56:21;25;23;
73623;PMS5003;61921;53.226;-1.296;2023-07-08T14:58:47;21;20;
73623;PMS5003;61921;53.226;-1.296;2023-07-08T15:01:15;19;19;
73623;PMS5003;61921;53.226;-1.296;2023-07-08T15:03:38;19;19;
73623;PMS5003;61921;53.226;-1.296;2023-07-08T15:06:04;19;18;
73623;PMS5003;61921;53.226;-1.296;2023-07-08T15:08:28;17;17;
73623;PMS5003;61921;53.226;-1.296;2023-07-08T15:10:54;13;12;
73623;PMS5003;61921;53.226;-1.296;2023-07-08T15:13:21;17;16;
73623;PMS5003;61921;53.226;-1.296;2023-07-08T15:15:44;15;15;
73623;PMS5003;61921;53.226;-1.296;2023-07-08T15:18:10;19;16;
73623;PMS5003;61921;53.226;-1.296;2023-07-08T15:20:34;15;14;
73623;PMS5003;61921;53.226;-1.296;2023-07-08T15:23:00;11;11;
73623;PMS5003;61921;53.226;-1.296;2023-07-08T15:25:25;15;12;
73623;PMS5003;61921;53.226;-1.296;2023-07-08T15:27:50;8;8;
73623;PMS5003;61921;53.226;-1.296;2023-07-08T15:30:16;9;9;
73623;PMS5003;61921;53.226;-1.296;2023-07-08T15:32:40;11;11;
73623;PMS5003;61921;53.226;-1.296;2023-07-08T15:35:07;6;6;
73623;PMS5003;61921;53.226;-1.296;2023-07-08T15:37:30;7;7;
73623;PMS5003;61921;53.226;-1.296;2023-07-08T15:39:55;6;6;
73623;PMS5003;61921;53.226;-1.296;2023-07-08T15:42:20;12;8;
73623;PMS5003;61921;53.226;-1.296;2023-07-08T15:44:45;7;7;
73623;PMS5003;61921;53.226;-1.296;2023-07-08T15:47:11;8;7;
73623;PMS5003;61921;53.226;-1.296;2023-07-08T15:49:36;8;8;
73623;PMS5003;61921;53.226;-1.296;2023-07-08T15:52:01;14;11;
73623;PMS5003;61921;53.226;-1.296;2023-07-08T15:54:26;9;8;
73623;PMS5003;61921;53.226;-1.296;2023-07-08T15:56:52;5;5;
73623;PMS5003;61921;53.226;-1.296;2023-07-08T15:59:17;11;11;
73623;PMS5003;61921;53.226;-1.296;2023-07-08T16:01:41;7;7;
73623;PMS5003;61921;53.226;-1.296;2023-07-08T16:04:09;12;9;